createdAt,value
2018-05-24T00:02:17.654Z,1.50
2018-05-24T00:04:46.040Z,1.63
2018-05-24T00:07:14.352Z,1.50
2018-05-24T00:09:43.460Z,1.57
2018-05-24T00:12:13.341Z,1.67
2018-05-24T00:14:41.643Z,1.47
2018-05-24T00:17:10.727Z,1.50
2018-05-24T00:19:39.039Z,1.77
2018-05-24T00:22:07.429Z,1.73
2018-05-24T00:24:35.737Z,1.87
2018-05-24T00:27:04.056Z,1.33
2018-05-24T00:29:33.893Z,1.80
2018-05-24T00:32:03.006Z,1.60
2018-05-24T00:34:31.311Z,1.70
2018-05-24T00:36:59.655Z,1.27
2018-05-24T00:39:28.725Z,1.40
2018-05-24T00:41:57.053Z,1.60
2018-05-24T00:44:25.401Z,1.60
2018-05-24T00:46:53.735Z,2.10
2018-05-24T00:49:22.054Z,1.60
2018-05-24T00:51:50.362Z,1.50
2018-05-24T00:54:18.682Z,1.53
2018-05-24T00:56:46.983Z,1.90
2018-05-24T00:59:15.321Z,1.93
2018-05-24T01:01:43.628Z,1.53
2018-05-24T01:04:11.979Z,1.60
2018-05-24T01:06:41.066Z,1.83
2018-05-24T01:09:10.239Z,1.67
2018-05-24T01:11:38.548Z,1.70
2018-05-24T01:14:07.723Z,2.03
2018-05-24T01:16:36.032Z,2.00
2018-05-24T01:19:04.422Z,1.67
2018-05-24T01:21:32.779Z,1.90
2018-05-24T01:24:01.870Z,1.73
2018-05-24T01:26:30.199Z,1.90
2018-05-24T01:28:58.513Z,2.20
2018-05-24T01:31:26.837Z,1.70
2018-05-24T01:33:55.149Z,1.63
2018-05-24T01:39:16.285Z,1.67
2018-05-24T01:41:44.623Z,1.87
2018-05-24T01:44:13.686Z,1.90
2018-05-24T01:46:42.033Z,1.90
2018-05-24T01:49:10.335Z,2.03
2018-05-24T01:51:38.690Z,1.87
2018-05-24T01:54:07.009Z,1.70
2018-05-24T01:56:35.338Z,1.90
2018-05-24T01:59:03.640Z,2.47
2018-05-24T02:01:31.962Z,2.10
2018-05-24T02:04:00.263Z,1.70
2018-05-24T02:06:29.360Z,2.30
2018-05-24T02:08:58.435Z,1.90
2018-05-24T02:13:58.711Z,1.93
2018-05-24T02:16:27.803Z,2.10
2018-05-24T02:18:57.015Z,2.00
2018-05-24T02:21:25.322Z,2.40
2018-05-24T02:23:53.639Z,2.20
2018-05-24T02:26:21.944Z,1.93
2018-05-24T02:28:51.023Z,2.37
2018-05-24T02:31:19.338Z,1.93
2018-05-24T02:33:47.671Z,2.40
2018-05-24T02:36:15.970Z,1.90
2018-05-24T02:38:44.288Z,2.00
2018-05-24T02:41:13.081Z,1.83
2018-05-24T02:43:41.399Z,1.93
2018-05-24T02:46:10.928Z,2.53
2018-05-24T02:51:15.645Z,2.30
2018-05-24T02:53:43.961Z,2.03
2018-05-24T02:56:13.379Z,2.27
2018-05-24T02:58:41.823Z,2.40
2018-05-24T03:01:11.242Z,2.17
2018-05-24T03:03:39.624Z,1.83
2018-05-24T03:06:07.956Z,2.47
2018-05-24T03:08:36.289Z,2.30
2018-05-24T03:11:04.641Z,2.17
2018-05-24T03:13:32.983Z,2.10
2018-05-24T03:16:02.083Z,2.17
2018-05-24T03:18:31.166Z,2.30
2018-05-24T03:20:59.469Z,2.67
2018-05-24T03:23:28.571Z,2.37
2018-05-24T03:25:57.651Z,2.20
2018-05-24T03:28:25.966Z,2.77
2018-05-24T03:30:54.270Z,2.50
2018-05-24T03:33:22.613Z,2.10
2018-05-24T03:35:50.910Z,2.40
2018-05-24T03:38:19.239Z,2.63
2018-05-24T03:40:47.538Z,2.53
2018-05-24T03:43:16.629Z,2.33
2018-05-24T03:45:44.959Z,2.73
2018-05-24T03:48:13.306Z,2.53
2018-05-24T03:50:42.387Z,2.70
2018-05-24T03:53:10.688Z,2.50
2018-05-24T03:55:39.784Z,2.50
2018-05-24T03:58:08.850Z,2.80
2018-05-24T04:00:48.895Z,2.60
2018-05-24T04:03:29.164Z,2.43
2018-05-24T04:05:57.483Z,2.60
2018-05-24T04:08:26.551Z,2.80
2018-05-24T04:10:54.863Z,2.80
2018-05-24T04:13:23.197Z,2.37
2018-05-24T04:15:52.509Z,2.90
2018-05-24T04:18:20.831Z,2.53
2018-05-24T04:20:49.158Z,2.50
2018-05-24T04:23:17.541Z,2.73
2018-05-24T04:25:45.816Z,2.70
2018-05-24T04:28:14.161Z,3.13
2018-05-24T04:30:42.495Z,2.43
2018-05-24T04:33:10.806Z,3.30
2018-05-24T04:35:39.241Z,3.10
2018-05-24T04:38:07.546Z,2.90
2018-05-24T04:40:35.874Z,3.27
2018-05-24T04:43:04.202Z,3.10
2018-05-24T04:45:33.393Z,2.77
2018-05-24T04:48:01.636Z,3.43
2018-05-24T04:50:29.950Z,2.90
2018-05-24T04:52:58.385Z,2.77
2018-05-24T04:55:26.727Z,2.90
2018-05-24T04:57:55.060Z,2.87
2018-05-24T05:00:23.358Z,2.73
2018-05-24T05:02:51.694Z,2.60
2018-05-24T05:05:20.018Z,3.00
2018-05-24T05:07:48.372Z,3.70
2018-05-24T05:10:16.698Z,3.07
2018-05-24T05:12:45.013Z,2.73
2018-05-24T05:15:13.358Z,2.70
2018-05-24T05:17:41.678Z,2.90
2018-05-24T05:20:09.997Z,2.80
2018-05-24T05:22:38.339Z,2.63
2018-05-24T05:25:08.218Z,4.10
2018-05-24T05:27:37.294Z,2.70
2018-05-24T05:30:05.649Z,2.90
2018-05-24T05:32:34.718Z,3.20
2018-05-24T05:35:03.841Z,2.80
2018-05-24T05:37:32.964Z,2.70
2018-05-24T05:40:02.018Z,2.80
2018-05-24T05:42:31.149Z,2.75
2018-05-24T05:44:59.476Z,2.80
2018-05-24T05:47:27.802Z,2.40
2018-05-24T05:49:56.883Z,2.67
2018-05-24T05:52:25.225Z,2.43
2018-05-24T05:54:53.549Z,2.40
2018-05-24T05:57:21.955Z,2.20
2018-05-24T05:59:50.199Z,2.60
2018-05-24T06:02:18.536Z,2.40
2018-05-24T06:04:46.910Z,2.90
2018-05-24T06:07:16.589Z,2.60
2018-05-24T06:09:44.982Z,2.47
2018-05-24T06:12:14.625Z,2.20
2018-05-24T06:14:43.055Z,2.33
2018-05-24T06:17:12.053Z,2.27
2018-05-24T06:19:40.378Z,2.60
2018-05-24T06:22:09.522Z,2.30
2018-05-24T06:24:37.863Z,2.17
2018-05-24T06:27:07.422Z,2.40
2018-05-24T06:29:35.936Z,2.40
2018-05-24T06:32:05.011Z,2.93
2018-05-24T06:34:33.302Z,2.67
2018-05-24T06:37:02.408Z,2.33
2018-05-24T06:39:30.731Z,1.90
2018-05-24T06:41:59.041Z,2.30
2018-05-24T06:44:27.380Z,2.07
2018-05-24T06:46:55.694Z,2.10
2018-05-24T06:49:23.999Z,2.53
2018-05-24T06:51:52.319Z,2.47
2018-05-24T06:54:20.630Z,2.30
2018-05-24T06:56:48.963Z,2.23
2018-05-24T06:59:17.273Z,2.10
2018-05-24T07:01:45.612Z,2.10
2018-05-24T07:04:13.694Z,1.80
2018-05-24T07:06:47.575Z,1.87
2018-05-24T07:09:15.891Z,1.97
2018-05-24T07:11:45.006Z,1.70
2018-05-24T07:14:14.119Z,2.27
2018-05-24T07:16:42.451Z,2.03
2018-05-24T07:19:10.759Z,1.93
2018-05-24T07:21:39.864Z,1.93
2018-05-24T07:24:08.960Z,1.83
2018-05-24T07:26:38.037Z,1.90
2018-05-24T07:29:06.367Z,2.20
2018-05-24T07:31:42.999Z,1.87
2018-05-24T07:34:11.342Z,2.20
2018-05-24T07:36:39.655Z,1.90
2018-05-24T07:39:07.993Z,1.50
2018-05-24T07:41:36.317Z,1.67
2018-05-24T07:44:04.668Z,2.10
2018-05-24T07:46:33.024Z,1.87
2018-05-24T07:49:01.351Z,1.70
2018-05-24T07:51:29.677Z,2.23
2018-05-24T07:53:57.994Z,1.90
2018-05-24T07:56:26.324Z,2.10
2018-05-24T07:58:55.403Z,1.60
2018-05-24T08:01:23.762Z,1.60
2018-05-24T08:03:52.079Z,1.87
2018-05-24T08:06:21.223Z,2.40
2018-05-24T08:08:49.540Z,1.92
2018-05-24T08:11:17.875Z,1.70
2018-05-24T08:13:46.187Z,1.70
2018-05-24T08:16:14.522Z,1.65
2018-05-24T08:18:42.843Z,1.77
2018-05-24T08:21:11.187Z,1.73
2018-05-24T08:23:39.507Z,2.03
2018-05-24T08:26:07.813Z,2.00
2018-05-24T08:28:36.140Z,1.60
2018-05-24T08:31:04.470Z,1.50
2018-05-24T08:36:08.621Z,1.77
2018-05-24T08:38:37.717Z,1.70
2018-05-24T08:41:06.808Z,1.60
2018-05-24T08:43:35.146Z,1.80
2018-05-24T08:46:03.480Z,1.83
2018-05-24T08:48:32.569Z,1.65
2018-05-24T08:51:00.884Z,1.65
2018-05-24T08:53:29.242Z,1.65
2018-05-24T08:55:58.322Z,1.70
2018-05-24T08:58:26.653Z,1.98
2018-05-24T09:00:54.962Z,1.73
2018-05-24T09:03:23.323Z,1.60
2018-05-24T09:05:51.661Z,1.73
2018-05-24T09:08:19.998Z,1.73
2018-05-24T09:10:48.321Z,1.70
2018-05-24T09:13:16.656Z,1.33
2018-05-24T09:15:45.001Z,1.87
2018-05-24T09:18:15.232Z,1.55
2018-05-24T09:20:43.742Z,1.77
2018-05-24T09:23:17.462Z,1.42
2018-05-24T09:25:46.729Z,1.42
2018-05-24T09:28:15.437Z,1.17
2018-05-24T09:30:43.864Z,1.70
2018-05-24T09:33:12.486Z,1.73
2018-05-24T09:35:40.809Z,1.42
2018-05-24T09:38:09.140Z,1.48
2018-05-24T09:40:38.294Z,1.40
2018-05-24T09:43:06.668Z,1.65
2018-05-24T09:45:34.970Z,1.65
2018-05-24T09:48:03.348Z,1.60
2018-05-24T09:50:31.657Z,1.17
2018-05-24T09:52:59.981Z,1.70
2018-05-24T09:55:28.283Z,1.45
2018-05-24T09:57:56.601Z,1.40
2018-05-24T10:00:24.943Z,1.73
2018-05-24T10:02:53.252Z,1.60
2018-05-24T10:05:21.640Z,1.50
2018-05-24T10:07:49.946Z,1.30
2018-05-24T10:10:19.077Z,1.43
2018-05-24T10:12:47.393Z,1.77
2018-05-24T10:15:15.739Z,1.70
2018-05-24T10:17:44.090Z,1.63
2018-05-24T10:20:13.338Z,1.63
2018-05-24T10:22:41.628Z,1.63
2018-05-24T10:25:09.943Z,1.87
2018-05-24T10:27:39.038Z,2.00
2018-05-24T10:30:08.187Z,1.50
2018-05-24T10:32:36.544Z,2.00
2018-05-24T10:35:04.851Z,1.37
2018-05-24T10:37:33.208Z,1.40
2018-05-24T10:40:01.535Z,1.65
2018-05-24T10:42:29.852Z,1.60
2018-05-24T10:44:58.956Z,1.62
2018-05-24T10:47:28.040Z,1.98
2018-05-24T10:49:56.378Z,1.70
2018-05-24T10:52:24.712Z,1.37
2018-05-24T10:54:53.802Z,1.75
2018-05-24T10:57:22.924Z,1.40
2018-05-24T10:59:52.009Z,1.20
2018-05-24T11:02:21.122Z,1.23
2018-05-24T11:04:49.445Z,1.40
2018-05-24T11:07:17.760Z,1.70
2018-05-24T11:09:46.074Z,1.50
2018-05-24T11:12:14.397Z,1.77
2018-05-24T11:14:43.520Z,1.17
2018-05-24T11:17:12.602Z,1.27
2018-05-24T11:19:40.988Z,1.33
2018-05-24T11:22:09.334Z,1.60
2018-05-24T11:24:37.686Z,1.45
2018-05-24T11:27:06.016Z,1.33
2018-05-24T11:29:34.358Z,1.50
2018-05-24T11:32:03.534Z,1.30
2018-05-24T11:34:31.809Z,1.73
2018-05-24T11:37:01.676Z,2.03
2018-05-24T11:39:30.730Z,1.83
2018-05-24T11:41:59.057Z,1.70
2018-05-24T11:44:27.367Z,1.77
2018-05-24T11:46:55.741Z,1.30
2018-05-24T11:49:24.084Z,1.50
2018-05-24T11:51:52.484Z,1.60
2018-05-24T11:54:20.740Z,1.40
2018-05-24T11:56:49.840Z,1.53
2018-05-24T11:59:18.912Z,1.53
2018-05-24T12:01:47.330Z,1.63
2018-05-24T12:04:15.615Z,1.50
2018-05-24T12:06:43.930Z,1.67
2018-05-24T12:09:13.584Z,1.80
2018-05-24T12:11:42.683Z,1.93
2018-05-24T12:14:11.769Z,1.43
2018-05-24T12:16:40.109Z,1.53
2018-05-24T12:19:08.447Z,1.40
2018-05-24T12:21:37.523Z,1.70
2018-05-24T12:24:06.209Z,1.70
2018-05-24T12:26:35.289Z,1.80
2018-05-24T12:29:04.527Z,1.87
2018-05-24T12:31:32.831Z,1.70
2018-05-24T12:34:01.151Z,1.70
2018-05-24T12:36:29.531Z,1.40
2018-05-24T12:38:57.839Z,1.63
2018-05-24T12:41:26.187Z,1.80
2018-05-24T12:43:54.509Z,1.80
2018-05-24T12:46:22.853Z,1.43
2018-05-24T12:48:51.168Z,1.47
2018-05-24T12:51:20.284Z,1.80
2018-05-24T12:53:49.365Z,1.60
2018-05-24T12:56:18.082Z,1.60
2018-05-24T12:58:46.433Z,2.03
2018-05-24T13:01:14.735Z,2.03
2018-05-24T13:03:43.820Z,1.63
2018-05-24T13:06:12.900Z,1.80
2018-05-24T13:08:41.466Z,1.73
2018-05-24T13:11:09.874Z,1.63
2018-05-24T13:13:38.194Z,1.57
2018-05-24T13:16:07.284Z,1.70
2018-05-24T13:18:36.385Z,1.70
2018-05-24T13:21:05.455Z,1.50
2018-05-24T13:23:34.563Z,1.40
2018-05-24T13:26:02.868Z,1.83
2018-05-24T13:28:32.356Z,1.70
2018-05-24T13:31:00.682Z,1.60
2018-05-24T13:33:29.001Z,1.43
2018-05-24T13:35:57.323Z,1.63
2018-05-24T13:38:25.654Z,1.50
2018-05-24T13:40:53.978Z,1.30
2018-05-24T13:43:23.066Z,2.00
2018-05-24T13:45:51.411Z,1.60
2018-05-24T13:48:19.758Z,1.60
2018-05-24T13:50:48.099Z,1.60
2018-05-24T13:53:17.199Z,1.30
2018-05-24T13:55:45.498Z,1.67
2018-05-24T13:58:13.889Z,1.57
2018-05-24T14:00:43.575Z,1.43
2018-05-24T14:03:12.677Z,1.30
2018-05-24T14:05:41.006Z,1.50
2018-05-24T14:08:09.320Z,1.20
2018-05-24T14:10:37.648Z,1.47
2018-05-24T14:13:06.749Z,1.40
2018-05-24T14:15:35.834Z,1.57
2018-05-24T14:18:04.937Z,1.30
2018-05-24T14:20:34.033Z,1.43
2018-05-24T14:23:03.122Z,1.67
2018-05-24T14:25:31.443Z,1.20
2018-05-24T14:27:59.753Z,1.50
2018-05-24T14:30:28.177Z,1.70
2018-05-24T14:32:57.250Z,1.33
2018-05-24T14:35:25.569Z,1.50
2018-05-24T14:37:53.874Z,1.43
2018-05-24T14:40:22.197Z,1.40
2018-05-24T14:42:50.531Z,1.40
2018-05-24T14:45:18.843Z,1.87
2018-05-24T14:47:52.839Z,1.47
2018-05-24T14:50:21.180Z,1.70
2018-05-24T14:52:50.314Z,1.60
2018-05-24T14:55:18.718Z,1.73
2018-05-24T14:57:47.050Z,1.70
2018-05-24T15:00:15.366Z,1.80
2018-05-24T15:02:43.705Z,1.50
2018-05-24T15:05:12.805Z,1.40
2018-05-24T15:07:41.241Z,1.33
2018-05-24T15:10:10.702Z,1.63
2018-05-24T15:12:39.048Z,1.57
2018-05-24T15:15:08.182Z,1.47
2018-05-24T15:17:36.643Z,1.40
2018-05-24T15:20:06.658Z,1.57
2018-05-24T15:22:35.255Z,1.40
2018-05-24T15:25:03.584Z,1.60
2018-05-24T15:27:32.037Z,1.50
2018-05-24T15:30:01.597Z,1.50
2018-05-24T15:32:30.039Z,1.60
2018-05-24T15:34:58.576Z,1.40
2018-05-24T15:37:27.794Z,1.50
2018-05-24T15:39:56.970Z,1.13
2018-05-24T15:42:26.373Z,1.57
2018-05-24T15:44:54.765Z,1.53
2018-05-24T15:47:23.982Z,1.13
2018-05-24T15:49:52.856Z,1.50
2018-05-24T15:52:22.440Z,1.73
2018-05-24T15:54:50.796Z,1.80
2018-05-24T15:57:19.880Z,1.93
2018-05-24T15:59:48.530Z,1.83
2018-05-24T16:02:17.219Z,1.40
2018-05-24T16:04:46.014Z,1.47
2018-05-24T16:07:15.887Z,1.50
2018-05-24T16:09:44.223Z,1.63
2018-05-24T16:12:12.548Z,1.50
2018-05-24T16:14:41.657Z,1.57
2018-05-24T16:17:09.984Z,1.60
2018-05-24T16:19:38.298Z,2.07
2018-05-24T16:22:07.405Z,1.57
2018-05-24T16:24:36.489Z,1.60
2018-05-24T16:27:04.831Z,1.53
2018-05-24T16:29:33.134Z,1.63
2018-05-24T16:32:01.457Z,1.70
2018-05-24T16:34:29.784Z,1.57
2018-05-24T16:36:58.136Z,1.50
2018-05-24T16:39:26.444Z,1.60
2018-05-24T16:41:54.825Z,1.93
2018-05-24T16:44:23.244Z,2.00
2018-05-24T16:46:52.389Z,1.90
2018-05-24T16:49:20.798Z,2.07
2018-05-24T16:51:49.299Z,1.60
2018-05-24T16:54:18.611Z,2.43
2018-05-24T16:56:46.882Z,2.07
2018-05-24T16:59:16.007Z,1.63
2018-05-24T17:01:45.131Z,1.67
2018-05-24T17:04:13.469Z,1.83
2018-05-24T17:06:41.797Z,1.53
2018-05-24T17:09:10.120Z,1.83
2018-05-24T17:11:38.450Z,1.50
2018-05-24T17:14:06.771Z,1.70
2018-05-24T17:16:35.091Z,2.27
2018-05-24T17:19:04.278Z,1.70
2018-05-24T17:21:33.381Z,1.70
2018-05-24T17:24:01.689Z,1.77
2018-05-24T17:26:30.058Z,2.23
2018-05-24T17:28:59.177Z,2.10
2018-05-24T17:31:27.516Z,1.93
2018-05-24T17:33:55.859Z,2.00
2018-05-24T17:36:24.224Z,1.80
2018-05-24T17:38:52.642Z,1.97
2018-05-24T17:41:20.996Z,1.80
2018-05-24T17:43:49.347Z,1.63
2018-05-24T17:46:18.455Z,1.83
2018-05-24T17:48:46.798Z,1.80
2018-05-24T17:51:15.897Z,1.90
2018-05-24T17:53:45.056Z,1.70
2018-05-24T17:56:13.382Z,1.73
2018-05-24T17:58:41.819Z,1.87
2018-05-24T18:01:10.224Z,2.10
2018-05-24T18:03:38.541Z,1.83
2018-05-24T18:06:07.821Z,1.83
2018-05-24T18:08:36.154Z,1.77
2018-05-24T18:11:05.800Z,1.73
2018-05-24T18:13:34.130Z,1.80
2018-05-24T18:16:04.172Z,1.37
2018-05-24T18:18:33.355Z,1.83
2018-05-24T18:21:03.302Z,1.93
2018-05-24T18:23:31.831Z,1.90
2018-05-24T18:26:01.016Z,2.10
2018-05-24T18:28:29.365Z,2.10
2018-05-24T18:30:58.017Z,1.70
2018-05-24T18:33:26.914Z,1.80
2018-05-24T18:35:56.006Z,1.80
2018-05-24T18:38:24.308Z,2.30
2018-05-24T18:40:53.462Z,2.20
2018-05-24T18:43:21.959Z,1.83
2018-05-24T18:45:50.283Z,2.20
2018-05-24T18:48:19.326Z,2.30
2018-05-24T18:50:47.785Z,1.77
2018-05-24T18:53:16.147Z,1.83
2018-05-24T18:55:45.281Z,2.03
2018-05-24T18:58:13.640Z,1.90
2018-05-24T19:00:42.047Z,1.93
2018-05-24T19:03:10.848Z,2.07
2018-05-24T19:05:39.641Z,2.27
2018-05-24T19:08:08.129Z,1.90
2018-05-24T19:10:36.611Z,1.90
2018-05-24T19:13:04.960Z,2.37
2018-05-24T19:15:33.849Z,1.80
2018-05-24T19:18:02.889Z,2.37
2018-05-24T19:20:32.121Z,2.30
2018-05-24T19:23:00.458Z,2.20
2018-05-24T19:25:29.158Z,2.07
2018-05-24T19:27:57.528Z,2.30
2018-05-24T19:30:25.876Z,2.23
2018-05-24T19:32:54.751Z,2.00
2018-05-24T19:35:24.228Z,2.60
2018-05-24T19:37:53.763Z,2.07
2018-05-24T19:40:22.330Z,2.20
2018-05-24T19:42:52.134Z,2.20
2018-05-24T19:45:21.644Z,2.03
2018-05-24T19:47:51.703Z,2.30
2018-05-24T19:50:20.087Z,2.40
2018-05-24T19:52:49.262Z,2.23
2018-05-24T19:55:18.600Z,2.33
2018-05-24T19:57:48.468Z,2.37
2018-05-24T20:00:16.872Z,2.13
2018-05-24T20:02:45.234Z,2.40
2018-05-24T20:05:13.586Z,2.40
2018-05-24T20:07:42.114Z,2.27
2018-05-24T20:10:10.501Z,3.00
2018-05-24T20:12:38.885Z,2.33
2018-05-24T20:15:09.925Z,2.93
2018-05-24T20:17:38.359Z,1.90
2018-05-24T20:20:06.724Z,1.93
2018-05-24T20:22:35.143Z,2.17
2018-05-24T20:25:04.511Z,2.37
2018-05-24T20:27:32.873Z,1.97
2018-05-24T20:30:03.226Z,2.10
2018-05-24T20:32:32.319Z,1.83
2018-05-24T20:35:01.585Z,2.10
2018-05-24T20:37:29.922Z,2.23
2018-05-24T20:39:58.247Z,2.10
2018-05-24T20:42:26.588Z,2.10
2018-05-24T20:44:54.901Z,2.40
2018-05-24T20:47:23.231Z,2.47
2018-05-24T20:49:52.318Z,2.43
2018-05-24T20:52:21.467Z,2.10
2018-05-24T20:54:49.789Z,2.17
2018-05-24T20:57:18.894Z,2.00
2018-05-24T20:59:47.455Z,2.00
2018-05-24T21:02:15.830Z,2.57
2018-05-24T21:04:44.177Z,2.10
2018-05-24T21:07:12.500Z,2.00
2018-05-24T21:09:40.834Z,2.50
2018-05-24T21:12:09.433Z,2.13
2018-05-24T21:14:37.845Z,2.10
2018-05-24T21:17:07.009Z,2.40
2018-05-24T21:19:35.570Z,2.10
2018-05-24T21:22:06.085Z,2.33
2018-05-24T21:24:34.625Z,2.37
2018-05-24T21:27:03.126Z,2.20
2018-05-24T21:29:31.468Z,2.23
2018-05-24T21:32:00.724Z,2.40
2018-05-24T21:34:29.206Z,2.30
2018-05-24T21:36:57.515Z,2.47
2018-05-24T21:39:25.887Z,2.57
2018-05-24T21:41:54.184Z,1.80
2018-05-24T21:44:22.522Z,2.47
2018-05-24T21:46:50.867Z,2.27
2018-05-24T21:49:19.253Z,2.47
2018-05-24T21:51:48.535Z,2.53
2018-05-24T21:54:17.687Z,2.27
2018-05-24T21:59:20.582Z,2.03
2018-05-24T22:01:51.829Z,2.00
2018-05-24T22:04:20.141Z,2.00
2018-05-24T22:06:48.462Z,2.63
2018-05-24T22:09:17.566Z,2.27
2018-05-24T22:11:45.903Z,2.20
2018-05-24T22:14:14.210Z,2.20
2018-05-24T22:16:43.354Z,2.20
2018-05-24T22:19:11.680Z,2.40
2018-05-24T22:21:40.015Z,2.57
2018-05-24T22:24:08.345Z,2.10
2018-05-24T22:26:36.659Z,2.07
2018-05-24T22:29:05.760Z,2.47
2018-05-24T22:31:34.065Z,2.23
2018-05-24T22:34:02.413Z,2.70
2018-05-24T22:36:31.486Z,2.73
2018-05-24T22:38:59.822Z,2.53
2018-05-24T22:41:28.139Z,2.80
2018-05-24T22:43:56.481Z,3.00
2018-05-24T22:46:24.862Z,2.33
2018-05-24T22:48:53.237Z,2.20
2018-05-24T22:51:21.550Z,2.37
2018-05-24T22:53:50.492Z,2.60
2018-05-24T22:56:19.596Z,2.50
2018-05-24T22:58:48.691Z,2.50
2018-05-24T23:01:17.796Z,2.37
2018-05-24T23:03:46.138Z,2.63
2018-05-24T23:06:14.451Z,2.57
2018-05-24T23:08:43.537Z,2.43
2018-05-24T23:11:12.646Z,2.50
2018-05-24T23:13:41.728Z,2.60
2018-05-24T23:16:10.034Z,2.43
2018-05-24T23:18:40.177Z,2.77
2018-05-24T23:21:08.498Z,3.10
2018-05-24T23:23:36.833Z,2.90
2018-05-24T23:26:05.155Z,2.67
2018-05-24T23:28:33.490Z,2.53
2018-05-24T23:31:01.808Z,2.60
2018-05-24T23:33:31.126Z,2.83
2018-05-24T23:35:59.448Z,3.30
2018-05-24T23:38:28.566Z,2.50
2018-05-24T23:40:56.884Z,3.10
2018-05-24T23:43:25.215Z,3.03
2018-05-24T23:45:53.532Z,3.03
2018-05-24T23:48:21.868Z,3.03
2018-05-24T23:50:50.222Z,2.90
2018-05-24T23:53:18.539Z,3.20
2018-05-24T23:55:47.636Z,3.43
2018-05-24T23:58:17.327Z,3.40
